aviador You're here:

KDET Decoded Metar

DETROIT in MI, USA
Report Time2018-02-25 14:53:00
UTC Time2018-02-25 15:06:16
Flight Rules mvfr MVFR
Wind250° at 16 Gusting to 25 kt
W.Decomp.*RWY 25: 15.9 kt HW 1.4 kt RCW
RWY 33: 4.1 kt HW 15.5 kt LCW
W.Rank250° ranks 3
Current wind is above 250° avg. (8.6)
Visibility9999 m
Phenomena:N/A
Clouds:Broken 025 Hf
Expected CloudBase > 2,400 ft AGL from Temp-Dew spread
Ceiling2,500 ft
Temp06°C (ISA -8)
Dew Point00°C (66% RH)
AAT-1.7°C
QNH1007 hPa
Density Alt-20 ft
Elevation623 ft
Report Wrong Elevation
Raw Report
KDET 251453Z 25016G25KT 10SM BKN025 06/00 A2975 RMK AO2 PK WND
26034/1355 SLP079 T00560000 51062=

Extra information for KDET:More info

Metar Taf Metar & Taf Last 4 Metars F.Rules Stats Wind Profile Meteogram Temp Stats Airport Information Weather charts Add Link Nearby VenuesMetar ALERT Operation Metar Decoded Social comments

AIRNAV info for KDET